Time;durP1;ratioP1;P1;durP2;ratioP2;P2;SDS_P1;SDS_P2;PMS_P1;PMS_P2;Temp;Humidity;BMP_temperature;BMP_pressure;BME280_temperature;BME280_humidity;BME280_pressure;Samples;Min_cycle;Max_cycle;Signal;HPM_P1;HPM_P2
2022/11/25 00:02:19;;;;;;;8.67;1.50;;;13.50;99.90;;;;;;5029990;28;20508;-82
2022/11/25 00:04:44;;;;;;;6.25;1.50;;;13.50;99.90;;;;;;5006847;28;20033;-82
2022/11/25 00:07:10;;;;;;;4.40;1.10;;;13.60;99.90;;;;;;4995947;28;20338;-82
2022/11/25 00:09:36;;;;;;;6.07;1.20;;;13.60;99.90;;;;;;5018762;28;20555;-82
2022/11/25 00:12:01;;;;;;;4.20;1.00;;;13.60;99.90;;;;;;5017695;28;20033;-83
2022/11/25 00:14:27;;;;;;;6.88;1.55;;;13.60;99.90;;;;;;4983400;28;20064;-83
2022/11/25 00:16:52;;;;;;;8.53;1.67;;;13.60;99.90;;;;;;5037382;28;20025;-82
2022/11/25 00:19:18;;;;;;;5.28;1.40;;;13.60;99.90;;;;;;5024569;28;20307;-82
2022/11/25 00:21:44;;;;;;;4.07;1.10;;;13.70;99.90;;;;;;5026759;28;20021;-83
2022/11/25 00:24:12;;;;;;;7.82;1.60;;;13.70;99.90;;;;;;5008077;28;20040;-82
2022/11/25 00:26:38;;;;;;;5.13;1.30;;;13.70;99.90;;;;;;5042140;28;20091;-82
2022/11/25 00:29:06;;;;;;;4.25;1.30;;;13.60;99.90;;;;;;5029951;28;20525;-82
2022/11/25 00:31:34;;;;;;;7.32;1.50;;;13.70;99.90;;;;;;5035480;28;20086;-82
2022/11/25 00:34:01;;;;;;;5.50;1.40;;;13.60;99.90;;;;;;5013076;28;20038;-83
2022/11/25 00:36:29;;;;;;;4.35;1.10;;;13.60;99.90;;;;;;5005541;28;20034;-83
2022/11/25 00:39:00;;;;;;;6.03;1.38;;;13.60;99.90;;;;;;5022980;28;20413;-83
2022/11/25 00:46:58;;;;;;;6.53;1.10;;;13.40;99.90;;;;;;5028343;28;20021;-83
2022/11/25 00:49:24;;;;;;;4.20;1.10;;;13.30;99.90;;;;;;5019136;28;20246;-85
2022/11/25 00:51:50;;;;;;;4.15;0.80;;;13.20;99.90;;;;;;5013300;28;20025;-84
2022/11/25 00:54:16;;;;;;;3.20;0.77;;;13.20;99.90;;;;;;5021051;28;20360;-84
2022/11/25 00:56:42;;;;;;;3.38;0.80;;;13.10;99.90;;;;;;5021141;28;20485;-85
2022/11/25 00:59:08;;;;;;;4.53;0.88;;;13.00;99.90;;;;;;5036225;28;20324;-84
2022/11/25 01:01:34;;;;;;;2.50;0.70;;;12.90;99.90;;;;;;5030959;28;20112;-84
2022/11/25 01:04:00;;;;;;;1.90;0.73;;;12.80;99.90;;;;;;5012243;28;20032;-85
2022/11/25 01:06:25;;;;;;;2.90;0.68;;;12.70;99.90;;;;;;4993228;28;20578;-85
2022/11/25 01:08:52;;;;;;;2.10;0.70;;;12.70;99.90;;;;;;5048229;28;20026;-86
2022/11/25 01:11:20;;;;;;;2.10;0.60;;;12.60;99.90;;;;;;5020560;28;20099;-85
2022/11/25 01:13:46;;;;;;;0.80;0.60;;;12.60;99.90;;;;;;5050864;28;20033;-84
2022/11/25 01:16:18;;;;;;;1.73;0.50;;;12.50;99.90;;;;;;5003873;28;20308;-85
2022/11/25 01:18:44;;;;;;;1.73;0.50;;;12.50;99.90;;;;;;5022067;28;20028;-84
2022/11/25 01:21:11;;;;;;;1.58;0.60;;;12.40;99.90;;;;;;4998656;28;20683;-84
2022/11/25 01:23:37;;;;;;;2.63;0.60;;;12.40;99.90;;;;;;5032224;28;20597;-84
2022/11/25 01:26:05;;;;;;;1.60;0.52;;;12.30;99.90;;;;;;5003366;28;20133;-84
2022/11/25 01:28:31;;;;;;;1.57;0.53;;;12.30;99.90;;;;;;5016891;28;20036;-84
2022/11/25 01:31:18;;;;;;;1.75;0.60;;;12.30;99.90;;;;;;5024409;28;20040;-84
2022/11/25 01:33:44;;;;;;;2.35;0.68;;;12.20;99.90;;;;;;5025481;28;20478;-85
2022/11/25 01:36:13;;;;;;;1.23;0.63;;;12.20;99.90;;;;;;5012190;28;20017;-85
2022/11/25 01:38:39;;;;;;;0.80;0.50;;;12.10;99.90;;;;;;5018916;28;20035;-85
2022/11/25 01:41:07;;;;;;;1.83;0.50;;;12.10;99.90;;;;;;5021461;28;20025;-84
2022/11/25 01:43:33;;;;;;;1.25;0.50;;;12.10;99.90;;;;;;5010801;28;20060;-83
2022/11/25 01:46:15;;;;;;;0.65;0.38;;;12.00;99.90;;;;;;5013301;28;20175;-84
2022/11/25 01:48:48;;;;;;;1.15;0.40;;;12.00;99.90;;;;;;4980731;28;20033;-84
2022/11/25 01:51:26;;;;;;;1.57;0.37;;;12.00;99.90;;;;;;5034223;28;20120;-83
2022/11/25 01:53:58;;;;;;;2.13;0.50;;;12.00;99.90;;;;;;5010618;28;20036;-83
2022/11/25 01:56:26;;;;;;;1.00;0.55;;;11.90;99.90;;;;;;4996144;28;20029;-83
2022/11/25 01:58:52;;;;;;;1.10;0.50;;;11.90;99.90;;;;;;5037429;28;20078;-83
2022/11/25 02:01:17;;;;;;;0.98;0.50;;;11.90;99.90;;;;;;5011996;28;20056;-83
2022/11/25 02:03:46;;;;;;;1.40;0.50;;;11.80;99.90;;;;;;4995997;28;20037;-83
2022/11/25 02:06:24;;;;;;;0.77;0.40;;;11.80;99.90;;;;;;4996072;28;20025;-84
2022/11/25 02:08:57;;;;;;;2.17;0.50;;;11.80;99.90;;;;;;5036640;28;20681;-84
2022/11/25 02:11:27;;;;;;;0.68;0.32;;;11.80;99.90;;;;;;4986639;28;20025;-84
2022/11/25 02:13:53;;;;;;;0.43;0.30;;;11.70;99.90;;;;;;5019893;28;20021;-83
2022/11/25 02:16:19;;;;;;;0.60;0.30;;;11.70;99.90;;;;;;5010908;28;20036;-83
2022/11/25 02:18:45;;;;;;;0.43;0.40;;;11.70;99.90;;;;;;4996114;28;20469;-84
2022/11/25 02:21:16;;;;;;;0.83;0.40;;;11.70;99.90;;;;;;5019307;28;20036;-84
2022/11/25 02:23:46;;;;;;;0.35;0.30;;;11.70;99.90;;;;;;5003131;28;20378;-84
2022/11/25 02:26:12;;;;;;;0.90;0.40;;;11.70;99.90;;;;;;5032904;28;20029;-84
2022/11/25 02:28:38;;;;;;;0.70;0.40;;;11.70;99.90;;;;;;5030190;28;20250;-84
2022/11/25 02:31:06;;;;;;;0.55;0.30;;;11.70;99.90;;;;;;5045271;28;20029;-84
2022/11/25 02:33:32;;;;;;;0.50;0.35;;;11.70;99.90;;;;;;4994933;28;20389;-83
2022/11/25 02:36:04;;;;;;;0.90;0.50;;;11.60;99.90;;;;;;5012817;28;20021;-83
2022/11/25 02:38:41;;;;;;;1.75;0.40;;;11.60;99.90;;;;;;5020525;28;20224;-84
2022/11/25 02:41:09;;;;;;;1.00;0.40;;;11.60;99.90;;;;;;5026210;28;20568;-84
2022/11/25 02:43:34;;;;;;;1.00;0.40;;;11.60;99.90;;;;;;4998000;28;20025;-83
2022/11/25 02:46:06;;;;;;;1.70;0.53;;;11.60;99.90;;;;;;5010571;28;20393;-84
2022/11/25 02:48:35;;;;;;;0.95;0.40;;;11.50;99.90;;;;;;5038300;28;20060;-85
2022/11/25 02:51:01;;;;;;;0.35;0.30;;;11.60;99.90;;;;;;5017911;28;20119;-85
2022/11/25 02:53:27;;;;;;;0.63;0.40;;;11.50;99.90;;;;;;5017281;28;20055;-85
2022/11/25 02:55:53;;;;;;;0.50;0.30;;;11.50;99.90;;;;;;4996770;28;20040;-85
2022/11/25 02:58:19;;;;;;;0.38;0.30;;;11.50;99.90;;;;;;5040225;28;20026;-85
2022/11/25 03:00:45;;;;;;;0.32;0.30;;;11.50;99.90;;;;;;5026156;28;20348;-83
2022/11/25 03:03:12;;;;;;;0.57;0.40;;;11.50;99.90;;;;;;5017537;28;20212;-84
2022/11/25 03:05:39;;;;;;;0.50;0.30;;;11.50;99.90;;;;;;5037542;28;20107;-84
2022/11/25 03:08:05;;;;;;;0.55;0.22;;;11.50;99.90;;;;;;5020145;28;20109;-84
2022/11/25 03:10:31;;;;;;;1.42;0.50;;;11.50;99.90;;;;;;5021519;28;20115;-85
2022/11/25 03:12:57;;;;;;;0.43;0.30;;;11.40;99.90;;;;;;5014557;28;20051;-84
2022/11/25 03:15:22;;;;;;;0.50;0.40;;;11.40;99.90;;;;;;5033510;28;20398;-84
2022/11/25 03:17:48;;;;;;;0.30;0.30;;;11.40;99.90;;;;;;5016693;28;20021;-84
2022/11/25 03:20:14;;;;;;;0.20;0.20;;;11.40;99.90;;;;;;4989436;28;20924;-85
2022/11/25 03:22:41;;;;;;;0.53;0.40;;;11.40;99.90;;;;;;5036608;28;20032;-84
2022/11/25 03:25:07;;;;;;;0.45;0.40;;;11.40;99.90;;;;;;5052422;28;20250;-84
2022/11/25 03:27:33;;;;;;;0.50;0.50;;;11.30;99.90;;;;;;5007541;28;20029;-84
2022/11/25 03:29:59;;;;;;;0.40;0.40;;;11.40;99.90;;;;;;5002869;28;20025;-84
2022/11/25 03:32:25;;;;;;;0.53;0.40;;;11.30;99.90;;;;;;5035494;28;20029;-84
2022/11/25 03:34:50;;;;;;;0.63;0.30;;;11.30;99.90;;;;;;5014095;28;20037;-84
2022/11/25 03:37:16;;;;;;;0.97;0.47;;;11.20;99.90;;;;;;5027593;28;20035;-84
2022/11/25 03:39:42;;;;;;;0.30;0.30;;;11.20;99.90;;;;;;5020445;28;20268;-84
2022/11/25 03:42:08;;;;;;;0.47;0.40;;;11.10;99.90;;;;;;5026027;28;20494;-84
2022/11/25 03:44:33;;;;;;;1.03;0.40;;;11.10;99.90;;;;;;5049021;28;20640;-85
2022/11/25 03:46:59;;;;;;;0.70;0.30;;;11.00;99.90;;;;;;5025444;28;20118;-84
2022/11/25 03:49:24;;;;;;;0.90;0.40;;;11.00;99.90;;;;;;5026329;28;20509;-84
2022/11/25 03:51:50;;;;;;;1.03;0.40;;;11.00;99.90;;;;;;4986929;28;20029;-85
2022/11/25 03:54:16;;;;;;;0.60;0.30;;;10.90;99.90;;;;;;5010459;28;20052;-85
2022/11/25 03:56:41;;;;;;;0.87;0.40;;;10.80;99.90;;;;;;5012734;28;20021;-85
2022/11/25 03:59:07;;;;;;;0.80;0.38;;;10.80;99.90;;;;;;5011201;28;20237;-84
2022/11/25 04:01:32;;;;;;;1.60;0.40;;;10.80;99.90;;;;;;4996755;28;20049;-84
2022/11/25 04:03:58;;;;;;;0.87;0.37;;;10.80;99.90;;;;;;5050416;28;20250;-84
2022/11/25 04:06:24;;;;;;;0.77;0.50;;;10.70;99.90;;;;;;5031957;28;20464;-84
2022/11/25 04:08:50;;;;;;;1.07;0.50;;;10.70;99.90;;;;;;5018845;28;20039;-84
2022/11/25 04:11:15;;;;;;;1.05;0.52;;;10.70;99.90;;;;;;5021112;28;20740;-84
2022/11/25 04:13:41;;;;;;;1.73;0.50;;;10.60;99.90;;;;;;5009908;28;20021;-84
2022/11/25 04:16:22;;;;;;;2.25;0.60;;;10.60;99.90;;;;;;5007660;28;20455;-84
2022/11/25 04:18:47;;;;;;;1.15;0.60;;;10.60;99.90;;;;;;5021132;28;20013;-85
2022/11/25 04:21:13;;;;;;;1.70;0.50;;;10.60;99.90;;;;;;5027998;28;20645;-84
2022/11/25 04:23:38;;;;;;;1.33;0.50;;;10.60;99.90;;;;;;5020252;28;20026;-84
2022/11/25 04:26:04;;;;;;;1.60;0.50;;;10.60;99.90;;;;;;5010580;28;20025;-84
2022/11/25 04:28:30;;;;;;;1.70;0.50;;;10.60;99.90;;;;;;5006882;28;20136;-84
2022/11/25 04:30:55;;;;;;;3.75;0.60;;;10.60;99.90;;;;;;5009980;28;20027;-84
2022/11/25 04:33:21;;;;;;;2.70;0.67;;;10.60;99.90;;;;;;5012814;28;20025;-85
2022/11/25 04:35:46;;;;;;;2.05;0.55;;;10.60;99.90;;;;;;5025461;28;21002;-85
2022/11/25 04:38:12;;;;;;;1.20;0.50;;;10.60;99.90;;;;;;4984723;28;20409;-84
2022/11/25 04:40:38;;;;;;;2.63;0.65;;;10.60;99.90;;;;;;5016498;28;20052;-85
2022/11/25 04:43:03;;;;;;;1.60;0.60;;;10.60;99.90;;;;;;5019730;28;20036;-85
2022/11/25 04:45:29;;;;;;;1.73;0.60;;;10.70;99.90;;;;;;5009756;28;20030;-85
2022/11/25 04:47:55;;;;;;;0.80;0.50;;;10.70;99.90;;;;;;4990420;28;20926;-85
2022/11/25 04:50:22;;;;;;;0.90;0.57;;;10.70;99.90;;;;;;5037473;28;20021;-84
2022/11/25 04:52:48;;;;;;;1.63;0.50;;;10.70;99.90;;;;;;4985829;28;20207;-84
2022/11/25 04:55:14;;;;;;;1.55;0.60;;;10.70;99.90;;;;;;5036873;28;20091;-84
2022/11/25 04:57:40;;;;;;;0.90;0.60;;;10.60;99.90;;;;;;5027665;28;20243;-85
2022/11/25 05:00:08;;;;;;;2.33;0.50;;;10.60;99.90;;;;;;5016913;28;20029;-85
2022/11/25 05:02:33;;;;;;;3.40;0.68;;;10.60;99.90;;;;;;4998726;28;20128;-85
2022/11/25 05:04:59;;;;;;;4.20;0.73;;;10.70;99.90;;;;;;5013481;28;20159;-85
2022/11/25 05:07:26;;;;;;;4.07;0.93;;;10.60;99.90;;;;;;5011231;28;20036;-85
2022/11/25 05:09:52;;;;;;;1.93;0.80;;;10.60;99.90;;;;;;4992470;28;20102;-85
2022/11/25 05:12:21;;;;;;;2.45;0.70;;;10.60;99.90;;;;;;5050245;28;20520;-84
2022/11/25 05:14:48;;;;;;;1.13;0.60;;;10.60;99.90;;;;;;5005482;28;20525;-84
2022/11/25 05:17:16;;;;;;;2.08;0.80;;;10.60;99.90;;;;;;5010243;28;20033;-84
2022/11/25 05:19:43;;;;;;;2.03;0.70;;;10.60;99.90;;;;;;4993705;28;20743;-84
2022/11/25 05:22:17;;;;;;;3.20;1.15;;;10.70;99.90;;;;;;5005732;28;20551;-85
2022/11/25 05:24:43;;;;;;;2.40;0.80;;;10.70;99.90;;;;;;4995523;28;20032;-85
2022/11/25 05:27:10;;;;;;;3.67;0.80;;;10.70;99.90;;;;;;5014714;28;20014;-86
2022/11/25 05:29:37;;;;;;;4.33;0.80;;;10.60;99.90;;;;;;5024440;28;20021;-85
2022/11/25 05:32:04;;;;;;;2.80;0.73;;;10.70;99.90;;;;;;5013181;28;20029;-85
2022/11/25 05:34:30;;;;;;;4.40;1.00;;;10.70;99.90;;;;;;5003570;28;20025;-85
2022/11/25 05:36:56;;;;;;;2.88;0.98;;;10.70;99.90;;;;;;5008835;28;20233;-85
2022/11/25 05:39:21;;;;;;;2.65;0.80;;;10.70;99.90;;;;;;5020943;28;20159;-85
2022/11/25 05:41:47;;;;;;;2.93;0.80;;;10.70;99.90;;;;;;4978189;28;20331;-85
2022/11/25 05:44:13;;;;;;;1.90;0.80;;;10.70;99.90;;;;;;4993304;28;20035;-85
2022/11/25 05:46:38;;;;;;;2.53;0.80;;;10.70;99.90;;;;;;5024963;28;20333;-85
2022/11/25 05:49:04;;;;;;;1.37;0.70;;;10.70;99.90;;;;;;5006675;28;20374;-85
2022/11/25 05:51:30;;;;;;;2.88;0.90;;;10.70;99.90;;;;;;5053414;28;20036;-84
2022/11/25 05:53:56;;;;;;;2.63;0.97;;;10.70;99.90;;;;;;5021443;28;20037;-84
2022/11/25 05:56:22;;;;;;;3.50;0.80;;;10.70;99.90;;;;;;5031708;28;20349;-85
2022/11/25 05:58:48;;;;;;;2.45;1.25;;;10.60;99.90;;;;;;5003072;28;20326;-86
2022/11/25 06:01:16;;;;;;;1.83;0.73;;;10.60;99.90;;;;;;5030469;28;20020;-85
2022/11/25 06:03:42;;;;;;;1.73;1.10;;;10.60;99.90;;;;;;4996663;28;20699;-85
2022/11/25 06:06:08;;;;;;;2.38;1.10;;;10.60;99.90;;;;;;5034951;28;20109;-84
2022/11/25 06:08:35;;;;;;;2.67;1.30;;;10.60;99.90;;;;;;5033473;28;20338;-85
2022/11/25 06:11:10;;;;;;;2.70;1.23;;;10.60;99.90;;;;;;5011588;28;20028;-84
2022/11/25 06:13:36;;;;;;;4.07;1.52;;;10.60;99.90;;;;;;5012367;28;20063;-85
2022/11/25 06:16:15;;;;;;;4.93;1.30;;;10.50;99.90;;;;;;5023985;28;20548;-85
2022/11/25 06:18:40;;;;;;;4.65;1.40;;;10.50;99.90;;;;;;5048601;28;20511;-84
2022/11/25 06:21:08;;;;;;;2.88;1.33;;;10.50;99.90;;;;;;4996890;28;20029;-85
2022/11/25 06:23:35;;;;;;;3.67;1.10;;;10.50;99.90;;;;;;5012024;28;20854;-86
2022/11/25 06:26:24;;;;;;;5.15;1.42;;;10.50;99.90;;;;;;5017061;28;20511;-85
2022/11/25 06:28:53;;;;;;;2.00;0.90;;;10.50;99.90;;;;;;5013341;28;20060;-84
2022/11/25 06:31:21;;;;;;;2.70;0.90;;;10.50;99.90;;;;;;5005160;28;20026;-85
2022/11/25 06:33:49;;;;;;;2.70;0.90;;;10.40;99.90;;;;;;5016351;28;20284;-84
2022/11/25 06:36:17;;;;;;;2.70;1.27;;;10.40;99.90;;;;;;5001752;28;20515;-84
2022/11/25 06:38:52;;;;;;;2.70;1.17;;;10.40;99.90;;;;;;5007477;28;20559;-84
2022/11/25 06:41:19;;;;;;;3.53;1.70;;;10.40;99.90;;;;;;5004790;28;20017;-84
2022/11/25 06:43:44;;;;;;;5.90;1.50;;;10.40;99.90;;;;;;5006552;28;20217;-85
2022/11/25 06:46:15;;;;;;;4.13;1.70;;;10.30;99.90;;;;;;4986913;28;20662;-85
2022/11/25 06:48:41;;;;;;;3.60;1.30;;;10.40;99.90;;;;;;4994884;28;20021;-84
2022/11/25 06:51:09;;;;;;;3.13;1.15;;;10.30;99.90;;;;;;4997095;28;21129;-84
2022/11/25 06:53:36;;;;;;;4.47;1.10;;;10.30;99.90;;;;;;5013255;28;20230;-84
2022/11/25 06:56:14;;;;;;;3.65;1.10;;;10.30;99.90;;;;;;5042327;28;20422;-85
2022/11/25 06:58:41;;;;;;;2.88;1.05;;;10.30;99.90;;;;;;5001386;28;20418;-83
2022/11/25 07:01:18;;;;;;;2.13;1.02;;;10.30;99.90;;;;;;5006286;28;20115;-84
2022/11/25 07:03:44;;;;;;;4.88;1.50;;;10.30;99.90;;;;;;5005940;28;20442;-84
2022/11/25 07:06:15;;;;;;;2.97;1.10;;;10.20;99.90;;;;;;5009996;28;20026;-86
2022/11/25 07:08:41;;;;;;;3.20;1.10;;;10.20;99.90;;;;;;4999623;28;20422;-84
2022/11/25 07:11:12;;;;;;;3.45;1.42;;;10.20;99.90;;;;;;5009160;28;20158;-86
2022/11/25 07:13:37;;;;;;;2.78;1.00;;;10.20;99.90;;;;;;5029729;28;20608;-85
2022/11/25 07:16:05;;;;;;;2.53;0.90;;;10.20;99.90;;;;;;5011114;28;20045;-84
2022/11/25 07:18:36;;;;;;;3.80;1.15;;;10.20;99.90;;;;;;5034723;28;20488;-85
2022/11/25 07:21:09;;;;;;;3.97;1.10;;;10.30;99.90;;;;;;5008808;28;20037;-84
2022/11/25 07:23:35;;;;;;;3.63;1.08;;;10.30;99.90;;;;;;5023696;28;20025;-84
2022/11/25 07:26:06;;;;;;;2.23;1.10;;;10.30;99.90;;;;;;5009809;28;20083;-85
2022/11/25 07:28:33;;;;;;;3.75;1.00;;;10.30;99.90;;;;;;4995075;28;20025;-85
2022/11/25 07:31:06;;;;;;;4.30;0.95;;;10.30;99.90;;;;;;5020726;28;20237;-84
2022/11/25 07:33:31;;;;;;;3.80;1.27;;;10.30;99.90;;;;;;5006781;28;20502;-85
2022/11/25 07:36:05;;;;;;;3.30;1.20;;;10.40;99.90;;;;;;5010673;28;20295;-84
2022/11/25 07:38:31;;;;;;;3.72;1.40;;;10.30;99.90;;;;;;5010452;28;20025;-84
2022/11/25 07:41:13;;;;;;;4.72;1.15;;;10.30;99.90;;;;;;5012597;28;21271;-85
2022/11/25 07:43:39;;;;;;;3.67;1.20;;;10.40;99.90;;;;;;5002408;28;20043;-84
2022/11/25 07:46:32;;;;;;;5.57;1.50;;;10.40;99.90;;;;;;5053476;28;20131;-84
2022/11/25 07:49:00;;;;;;;5.60;1.42;;;10.40;99.90;;;;;;4998647;28;20029;-85
2022/11/25 07:51:27;;;;;;;5.20;1.48;;;10.40;99.90;;;;;;5028388;28;20033;-85
2022/11/25 07:53:55;;;;;;;4.85;1.45;;;10.40;99.90;;;;;;5025913;28;20021;-86
2022/11/25 07:56:21;;;;;;;4.45;1.60;;;10.40;99.90;;;;;;5015465;28;20039;-85
2022/11/25 07:58:47;;;;;;;6.73;1.80;;;10.50;99.90;;;;;;4995904;28;21180;-84
2022/11/25 08:01:14;;;;;;;5.35;1.88;;;10.50;99.90;;;;;;5016560;28;20030;-84
2022/11/25 08:03:42;;;;;;;6.35;1.80;;;10.50;99.90;;;;;;5038459;28;20072;-85
2022/11/25 08:06:11;;;;;;;4.53;1.27;;;10.50;99.90;;;;;;5012850;28;20400;-86
2022/11/25 08:08:38;;;;;;;5.68;2.53;;;10.60;99.90;;;;;;5017683;28;20628;-84
2022/11/25 08:11:08;;;;;;;4.00;2.10;;;10.60;99.90;;;;;;4995132;28;20025;-84
2022/11/25 08:13:34;;;;;;;4.78;1.80;;;10.60;99.90;;;;;;5027628;28;20337;-86
2022/11/25 08:16:00;;;;;;;5.68;1.60;;;10.70;99.90;;;;;;5020339;28;20116;-85
2022/11/25 08:18:26;;;;;;;3.50;1.20;;;10.70;99.90;;;;;;5008084;28;20026;-84
2022/11/25 08:20:57;;;;;;;3.70;1.17;;;10.70;99.90;;;;;;5007538;28;20602;-86
2022/11/25 08:23:22;;;;;;;4.63;1.25;;;10.80;99.90;;;;;;5004179;28;20476;-85
2022/11/25 08:25:48;;;;;;;5.55;1.40;;;10.80;99.90;;;;;;5016523;28;20040;-85
2022/11/25 08:28:13;;;;;;;4.13;1.17;;;10.80;99.90;;;;;;5012569;28;20044;-85
2022/11/25 08:30:39;;;;;;;4.73;1.20;;;10.80;99.90;;;;;;5010063;28;20311;-85
2022/11/25 08:33:06;;;;;;;3.03;1.05;;;10.90;99.90;;;;;;5015365;28;20025;-84
2022/11/25 08:35:36;;;;;;;4.75;1.20;;;10.90;99.90;;;;;;5023557;28;20025;-84
2022/11/25 08:38:04;;;;;;;5.07;1.30;;;11.00;99.90;;;;;;5005328;28;20092;-85
2022/11/25 08:40:29;;;;;;;4.65;1.30;;;11.00;99.90;;;;;;5020452;28;20064;-85
2022/11/25 08:42:55;;;;;;;3.92;1.13;;;11.00;99.90;;;;;;5003599;28;20056;-84
2022/11/25 08:45:21;;;;;;;4.47;1.23;;;11.00;99.90;;;;;;5025617;28;20029;-84
2022/11/25 08:47:46;;;;;;;3.53;1.00;;;11.10;99.90;;;;;;4984471;28;20136;-84
2022/11/25 08:50:14;;;;;;;3.23;1.20;;;11.10;99.90;;;;;;5007955;28;20017;-84
2022/11/25 08:52:39;;;;;;;4.18;1.40;;;11.10;99.90;;;;;;4977835;28;21412;-84
2022/11/25 08:55:05;;;;;;;6.50;1.60;;;11.20;99.90;;;;;;5047771;28;20079;-85
2022/11/25 08:57:31;;;;;;;5.28;1.55;;;11.20;99.90;;;;;;5009403;28;20254;-84
2022/11/25 08:59:57;;;;;;;4.07;1.30;;;11.30;99.90;;;;;;5016644;28;20013;-84
2022/11/25 09:02:23;;;;;;;3.70;1.27;;;11.30;99.90;;;;;;5034161;28;20068;-84
2022/11/25 09:04:49;;;;;;;2.60;1.15;;;11.40;99.90;;;;;;5009101;28;20021;-85
2022/11/25 09:07:15;;;;;;;4.33;1.60;;;11.40;99.90;;;;;;5003421;28;20583;-87
2022/11/25 09:09:41;;;;;;;3.83;1.50;;;11.50;99.90;;;;;;5027206;28;20464;-84
2022/11/25 09:12:07;;;;;;;4.90;1.45;;;11.50;99.90;;;;;;5023154;28;20037;-85
2022/11/25 09:14:33;;;;;;;5.00;1.73;;;11.60;99.90;;;;;;5007658;28;20021;-85
2022/11/25 09:17:00;;;;;;;6.00;1.38;;;11.60;99.90;;;;;;4996193;28;20029;-85
2022/11/25 09:19:26;;;;;;;4.15;1.55;;;11.80;99.90;;;;;;5036957;28;20136;-84
2022/11/25 09:21:53;;;;;;;4.85;1.70;;;11.90;99.90;;;;;;5025716;28;20083;-85
2022/11/25 09:24:19;;;;;;;3.93;1.40;;;12.20;99.90;;;;;;5000692;28;20029;-85
2022/11/25 09:26:45;;;;;;;3.38;1.35;;;12.50;99.90;;;;;;5038344;28;20230;-84
2022/11/25 09:29:12;;;;;;;5.55;1.70;;;12.80;99.90;;;;;;5010402;28;20021;-85
2022/11/25 09:31:38;;;;;;;6.33;1.53;;;13.20;99.90;;;;;;4990683;28;20024;-86
2022/11/25 09:34:04;;;;;;;3.72;1.75;;;13.60;99.90;;;;;;5023518;28;20018;-84
2022/11/25 09:36:29;;;;;;;3.78;1.48;;;14.00;99.90;;;;;;5036151;28;20033;-85
2022/11/25 09:38:55;;;;;;;4.07;1.33;;;14.30;99.90;;;;;;5017480;28;20017;-85
2022/11/25 09:48:14;;;;;;;4.05;1.30;;;15.50;99.90;;;;;;4996408;28;20426;-85
2022/11/25 09:51:01;;;;;;;4.88;1.30;;;15.90;99.90;;;;;;5019911;28;20495;-86
2022/11/25 09:53:33;;;;;;;3.90;1.20;;;16.30;99.90;;;;;;5010477;28;20033;-86
2022/11/25 09:56:03;;;;;;;2.55;1.02;;;16.60;99.90;;;;;;5023952;28;20329;-84
2022/11/25 09:58:45;;;;;;;3.50;1.10;;;16.80;99.90;;;;;;5019390;28;20087;-84
2022/11/25 10:01:18;;;;;;;3.60;1.10;;;17.10;99.90;;;;;;5012617;28;20025;-85
2022/11/25 10:03:55;;;;;;;3.17;1.20;;;17.40;99.90;;;;;;5000501;28;20029;-85
2022/11/25 10:06:22;;;;;;;2.72;1.10;;;17.60;99.90;;;;;;5053304;28;20025;-84
2022/11/25 10:08:51;;;;;;;3.42;1.10;;;17.80;99.90;;;;;;5031972;28;20116;-84
2022/11/25 10:11:23;;;;;;;3.60;1.10;;;18.00;99.90;;;;;;5038559;28;20021;-84
2022/11/25 10:13:59;;;;;;;2.20;1.00;;;18.20;99.90;;;;;;5016360;28;20025;-85
2022/11/25 10:16:30;;;;;;;2.33;1.00;;;18.40;99.90;;;;;;5024185;28;20037;-85
2022/11/25 10:19:05;;;;;;;2.65;1.00;;;18.70;99.90;;;;;;5015336;28;20033;-84
2022/11/25 10:21:31;;;;;;;2.38;1.00;;;18.90;99.90;;;;;;4994199;28;20123;-84
2022/11/25 10:23:57;;;;;;;2.83;1.00;;;19.20;99.90;;;;;;5022728;28;20029;-84
2022/11/25 10:26:31;;;;;;;2.75;0.98;;;19.40;99.90;;;;;;5019722;28;20477;-87
2022/11/25 10:29:12;;;;;;;3.17;0.90;;;19.70;99.90;;;;;;5013949;28;20245;-84
2022/11/25 10:31:40;;;;;;;2.23;1.00;;;19.80;99.90;;;;;;4994119;28;20044;-86
2022/11/25 10:34:25;;;;;;;2.58;0.98;;;20.00;99.90;;;;;;5014444;28;22506;-84
2022/11/25 10:36:53;;;;;;;4.18;1.20;;;20.20;99.10;;;;;;5031844;28;20131;-84
2022/11/25 10:39:26;;;;;;;2.17;0.88;;;20.40;99.90;;;;;;5009780;28;20022;-84
2022/11/25 10:41:58;;;;;;;2.60;1.08;;;20.50;99.90;;;;;;5037507;28;20588;-85
2022/11/25 10:44:28;;;;;;;2.63;1.10;;;20.60;99.90;;;;;;5020402;28;20041;-84
2022/11/25 10:47:30;;;;;;;4.13;1.20;;;20.70;99.10;;;;;;5028860;28;20033;-85
2022/11/25 10:50:13;;;;;;;3.80;0.95;;;20.70;96.80;;;;;;5033455;28;20657;-83
2022/11/25 10:52:49;;;;;;;2.88;1.20;;;20.80;99.30;;;;;;5014215;28;20037;-83
2022/11/25 10:55:19;;;;;;;3.03;0.95;;;20.80;97.10;;;;;;5018672;28;20057;-84
2022/11/25 10:57:45;;;;;;;1.80;0.80;;;20.80;99.90;;;;;;5011618;28;20528;-83
2022/11/25 11:00:33;;;;;;;3.83;0.95;;;20.90;99.90;;;;;;5019910;28;20090;-85
2022/11/25 11:03:12;;;;;;;3.63;1.13;;;20.90;95.30;;;;;;5012186;28;20205;-85
2022/11/25 11:05:45;;;;;;;2.67;1.00;;;20.90;99.10;;;;;;5026531;28;20025;-84
2022/11/25 11:08:18;;;;;;;2.47;1.00;;;21.00;99.30;;;;;;5013564;28;20374;-83
2022/11/25 11:10:44;;;;;;;2.53;0.85;;;21.00;99.90;;;;;;5057405;28;20044;-84
2022/11/25 11:13:24;;;;;;;3.40;1.00;;;21.00;99.90;;;;;;5011912;28;20037;-84
2022/11/25 11:15:51;;;;;;;2.78;1.20;;;21.10;96.00;;;;;;5036610;28;20662;-85
2022/11/25 11:18:38;;;;;;;3.57;1.13;;;21.20;99.90;;;;;;5044714;28;20023;-84
2022/11/25 11:21:06;;;;;;;3.22;1.10;;;21.20;97.40;;;;;;5027332;28;20020;-84
2022/11/25 11:23:48;;;;;;;3.08;1.15;;;21.20;99.90;;;;;;5008876;28;20087;-85
2022/11/25 11:26:34;;;;;;;2.88;1.00;;;21.30;97.90;;;;;;5016595;28;20536;-84
2022/11/25 11:29:14;;;;;;;4.28;0.93;;;21.40;97.40;;;;;;4997158;28;20147;-84
2022/11/25 11:31:47;;;;;;;3.13;1.10;;;21.50;98.70;;;;;;5016920;28;20025;-83
2022/11/25 11:35:04;;;;;;;2.63;1.20;;;21.60;99.90;;;;;;4997937;28;20461;-84
2022/11/25 11:37:43;;;;;;;3.08;1.08;;;21.70;97.80;;;;;;4965657;28;20110;-83
2022/11/25 11:40:24;;;;;;;3.58;1.23;;;21.90;99.90;;;;;;4993456;28;20478;-84
2022/11/25 11:42:55;;;;;;;3.80;1.30;;;22.00;99.10;;;;;;5017974;28;20038;-83
2022/11/25 11:45:24;;;;;;;2.87;0.90;;;22.10;99.90;;;;;;4998902;28;20052;-83
2022/11/25 11:48:12;;;;;;;1.88;0.93;;;22.20;99.90;;;;;;5014842;28;20577;-84
2022/11/25 11:50:44;;;;;;;5.10;1.15;;;22.30;98.70;;;;;;5008024;28;20130;-85
2022/11/25 11:53:18;;;;;;;2.90;1.00;;;22.40;99.90;;;;;;5027010;28;20029;-84
2022/11/25 11:56:06;;;;;;;3.90;1.20;;;22.50;99.40;;;;;;5007002;28;20071;-83
2022/11/25 11:58:51;;;;;;;2.33;1.07;;;22.60;97.70;;;;;;4996915;28;24229;-84
2022/11/25 12:01:50;;;;;;;3.72;1.13;;;22.60;99.90;;;;;;5027682;28;20114;-84
2022/11/25 12:04:40;;;;;;;3.25;1.05;;;22.40;93.50;;;;;;4986283;28;20044;-83
2022/11/25 12:07:19;;;;;;;3.88;1.08;;;22.30;94.60;;;;;;5062183;28;20113;-83
2022/11/25 12:10:14;;;;;;;5.00;1.20;;;22.00;94.10;;;;;;5042095;28;20017;-82
2022/11/25 12:12:48;;;;;;;2.37;1.03;;;21.90;94.50;;;;;;5010770;28;20148;-85
2022/11/25 12:15:53;;;;;;;3.42;1.10;;;21.70;96.70;;;;;;5018164;28;20025;-82
2022/11/25 12:18:43;;;;;;;3.28;1.00;;;21.60;94.70;;;;;;5030940;28;20037;-83
2022/11/25 12:21:21;;;;;;;3.40;1.10;;;21.60;95.80;;;;;;5013739;28;20040;-84
2022/11/25 12:23:49;;;;;;;3.47;1.02;;;21.70;96.20;;;;;;5029188;28;20040;-84
2022/11/25 12:26:28;;;;;;;3.50;1.20;;;21.70;99.50;;;;;;5013358;28;20094;-84
2022/11/25 12:29:06;;;;;;;2.13;1.00;;;21.80;95.70;;;;;;5026105;28;20036;-84
2022/11/25 12:31:38;;;;;;;2.42;1.00;;;21.70;94.80;;;;;;5018128;28;20033;-84
2022/11/25 12:34:20;;;;;;;4.55;1.15;;;21.70;96.40;;;;;;5043021;28;20032;-84
2022/11/25 12:36:47;;;;;;;4.18;1.10;;;21.50;93.90;;;;;;5014882;28;20517;-84
2022/11/25 12:39:37;;;;;;;4.20;1.27;;;21.50;97.10;;;;;;5018720;28;20021;-84
2022/11/25 12:42:12;;;;;;;3.83;1.20;;;21.40;94.50;;;;;;5007620;28;20029;-84
2022/11/25 12:45:06;;;;;;;3.75;1.15;;;21.30;95.40;;;;;;5027617;28;20367;-84
2022/11/25 12:47:32;;;;;;;4.10;1.15;;;21.20;93.30;;;;;;5040480;28;20065;-84
2022/11/25 12:49:58;;;;;;;4.15;1.20;;;21.00;96.90;;;;;;5025488;28;20647;-83
2022/11/25 12:52:29;;;;;;;3.83;1.40;;;21.00;97.80;;;;;;4998046;28;20021;-82
2022/11/25 12:55:20;;;;;;;4.03;1.13;;;21.00;97.80;;;;;;5045529;28;20036;-83
2022/11/25 12:58:23;;;;;;;3.28;1.10;;;21.00;95.70;;;;;;5003668;28;20060;-83
2022/11/25 13:00:52;;;;;;;3.97;1.20;;;20.90;94.20;;;;;;5023519;28;20733;-83
2022/11/25 13:03:44;;;;;;;5.38;1.30;;;20.90;96.90;;;;;;5025759;28;20025;-83
2022/11/25 13:06:47;;;;;;;5.67;0.93;;;21.00;95.10;;;;;;5001478;28;20182;-83
2022/11/25 13:09:28;;;;;;;4.35;1.50;;;21.10;95.20;;;;;;5029200;28;20588;-83
2022/11/25 13:11:53;;;;;;;3.38;1.10;;;21.20;96.90;;;;;;4996898;28;20675;-82
2022/11/25 13:14:25;;;;;;;3.97;1.33;;;21.30;99.90;;;;;;5034114;28;20037;-84
2022/11/25 13:16:53;;;;;;;4.80;1.50;;;21.40;97.40;;;;;;5005929;28;20042;-83